createdAt,value
2019-06-07T00:00:51.304Z,1008.33
2019-06-07T00:01:51.291Z,1008.31
2019-06-07T00:02:51.310Z,1008.27
2019-06-07T00:03:51.269Z,1008.30
2019-06-07T00:04:51.257Z,1008.27
2019-06-07T00:05:51.247Z,1008.28
2019-06-07T00:06:51.236Z,1008.28
2019-06-07T00:07:51.225Z,1008.25
2019-06-07T00:08:51.245Z,1008.20
2019-06-07T00:09:51.201Z,1008.22
2019-06-07T00:10:51.188Z,1008.23
2019-06-07T00:11:51.178Z,1008.20
2019-06-07T00:12:51.168Z,1008.26
2019-06-07T00:13:51.187Z,1008.24
2019-06-07T00:14:51.147Z,1008.27
2019-06-07T00:15:51.136Z,1008.27
2019-06-07T00:16:51.121Z,1008.30
2019-06-07T00:17:51.111Z,1008.32
2019-06-07T00:18:51.130Z,1008.26
2019-06-07T00:19:51.087Z,1008.22
2019-06-07T00:20:51.075Z,1008.21
2019-06-07T00:22:15.916Z,1008.22
2019-06-07T00:22:52.092Z,1008.19
2019-06-07T00:23:51.073Z,1008.21
2019-06-07T00:24:51.031Z,1008.23
2019-06-07T00:25:51.021Z,1008.19
2019-06-07T00:26:58.431Z,1008.25
2019-06-07T00:27:51.995Z,1008.30
2019-06-07T00:28:51.016Z,1008.30
2019-06-07T00:29:50.974Z,1008.29
2019-06-07T00:30:52.409Z,1008.32
2019-06-07T00:31:50.952Z,1008.38
2019-06-07T00:32:51.266Z,1008.37
2019-06-07T00:33:50.968Z,1008.40
2019-06-07T00:34:50.918Z,1008.44
2019-06-07T00:35:50.907Z,1008.37
2019-06-07T00:36:50.895Z,1008.34
2019-06-07T00:37:50.883Z,1008.34
2019-06-07T00:38:50.903Z,1008.36
2019-06-07T00:40:12.913Z,1008.37
2019-06-07T00:40:51.853Z,1008.39
2019-06-07T00:41:50.839Z,1008.42
2019-06-07T00:42:50.828Z,1008.44
2019-06-07T00:43:50.848Z,1008.38
2019-06-07T00:44:50.804Z,1008.40
2019-06-07T00:45:50.793Z,1008.36
2019-06-07T00:46:50.786Z,1008.37
2019-06-07T00:47:50.771Z,1008.42
2019-06-07T00:48:50.763Z,1008.37
2019-06-07T00:49:50.781Z,1008.36
2019-06-07T00:50:50.737Z,1008.35
2019-06-07T00:51:51.912Z,1008.34
2019-06-07T00:53:51.702Z,1008.32
2019-06-07T00:54:50.722Z,1008.32
2019-06-07T00:55:50.682Z,1008.32
2019-06-07T00:56:50.668Z,1008.30
2019-06-07T00:57:50.657Z,1008.29
2019-06-07T00:59:10.253Z,1008.29
2019-06-07T00:59:51.666Z,1008.36
2019-06-07T01:00:50.628Z,1008.34
2019-06-07T01:01:50.614Z,1008.33
2019-06-07T01:02:50.602Z,1008.32
2019-06-07T01:03:50.589Z,1008.31
2019-06-07T01:04:50.611Z,1008.31
2019-06-07T01:05:50.567Z,1008.31
2019-06-07T01:06:50.556Z,1008.30
2019-06-07T01:07:50.586Z,1008.32
2019-06-07T01:08:50.537Z,1008.35
2019-06-07T01:09:50.554Z,1008.34
2019-06-07T01:10:54.063Z,1008.37
2019-06-07T01:11:50.499Z,1008.37
2019-06-07T01:12:50.490Z,1008.38
2019-06-07T01:13:50.475Z,1008.38
2019-06-07T01:14:50.500Z,1008.38
2019-06-07T01:15:50.453Z,1008.39
2019-06-07T01:16:57.191Z,1008.39
2019-06-07T01:18:33.048Z,1008.34
2019-06-07T01:18:51.539Z,1008.30
2019-06-07T01:19:50.440Z,1008.33
2019-06-07T01:20:50.398Z,1008.32
2019-06-07T01:21:50.387Z,1008.34
2019-06-07T01:22:50.374Z,1008.30
2019-06-07T01:24:12.109Z,1008.32
2019-06-07T01:24:51.386Z,1008.33
2019-06-07T01:25:50.341Z,1008.31
2019-06-07T01:26:50.334Z,1008.29
2019-06-07T01:27:50.318Z,1008.28
2019-06-07T01:28:50.316Z,1008.30
2019-06-07T01:29:50.326Z,1008.30
2019-06-07T01:30:50.283Z,1008.27
2019-06-07T01:31:50.275Z,1008.34
2019-06-07T01:32:50.268Z,1008.30
2019-06-07T01:33:51.472Z,1008.29
2019-06-07T01:34:50.271Z,1008.25
2019-06-07T01:35:50.290Z,1008.27
2019-06-07T01:36:50.214Z,1008.24
2019-06-07T01:37:50.206Z,1008.27
2019-06-07T01:38:50.193Z,1008.29
2019-06-07T01:39:50.229Z,1008.19
2019-06-07T01:40:50.171Z,1008.23
2019-06-07T01:41:50.159Z,1008.23
2019-06-07T01:42:50.153Z,1008.22
2019-06-07T01:43:50.136Z,1008.20
2019-06-07T01:44:50.127Z,1008.20
2019-06-07T01:45:50.146Z,1008.11
2019-06-07T01:46:50.102Z,1008.12
2019-06-07T01:47:50.095Z,1008.12
2019-06-07T01:48:50.147Z,1008.12
2019-06-07T01:49:50.098Z,1008.08
2019-06-07T01:50:50.130Z,1008.09
2019-06-07T01:51:50.046Z,1008.12
2019-06-07T01:52:50.034Z,1008.08
2019-06-07T01:53:50.022Z,1008.06
2019-06-07T01:54:57.853Z,1008.05
2019-06-07T01:55:51.030Z,1007.98
2019-06-07T01:56:49.989Z,1007.98
2019-06-07T01:57:49.977Z,1007.97
2019-06-07T01:58:49.969Z,1007.94
2019-06-07T01:59:49.956Z,1007.95
2019-06-07T02:00:49.976Z,1007.88
2019-06-07T02:01:49.931Z,1007.83
2019-06-07T02:02:49.920Z,1007.86
2019-06-07T02:03:49.942Z,1007.79
2019-06-07T02:04:49.901Z,1007.83
2019-06-07T02:05:49.917Z,1007.81
2019-06-07T02:06:49.880Z,1007.86
2019-06-07T02:07:49.866Z,1007.90
2019-06-07T02:08:49.853Z,1007.90
2019-06-07T02:09:49.841Z,1007.85
2019-06-07T02:10:49.862Z,1007.87
2019-06-07T02:11:49.817Z,1007.92
2019-06-07T02:12:49.807Z,1007.91
2019-06-07T02:13:49.796Z,1007.94
2019-06-07T02:14:49.848Z,1007.88
2019-06-07T02:15:49.804Z,1007.92
2019-06-07T02:16:49.763Z,1007.94
2019-06-07T02:17:49.752Z,1007.91
2019-06-07T02:19:01.555Z,1007.93
2019-06-07T02:19:50.727Z,1007.98
2019-06-07T02:20:49.748Z,1007.94
2019-06-07T02:21:49.708Z,1007.95
2019-06-07T02:22:49.694Z,1007.96
2019-06-07T02:23:49.683Z,1007.92
2019-06-07T02:25:33.894Z,1007.90
2019-06-07T02:25:50.895Z,1007.85
2019-06-07T02:26:49.649Z,1007.81
2019-06-07T02:27:49.639Z,1007.83
2019-06-07T02:28:49.626Z,1007.81
2019-06-07T02:29:49.614Z,1007.78
2019-06-07T02:30:59.672Z,1007.77
2019-06-07T02:31:50.623Z,1007.73
2019-06-07T02:32:49.602Z,1007.71
2019-06-07T02:33:49.571Z,1007.69
2019-06-07T02:34:49.559Z,1007.70
2019-06-07T02:35:49.548Z,1007.71
2019-06-07T02:36:49.567Z,1007.72
2019-06-07T02:37:49.526Z,1007.75
2019-06-07T02:38:49.515Z,1007.75
2019-06-07T02:39:49.501Z,1007.77
2019-06-07T02:40:49.490Z,1007.75
2019-06-07T02:41:49.515Z,1007.72
2019-06-07T02:42:49.470Z,1007.73
2019-06-07T02:43:49.460Z,1007.74
2019-06-07T02:44:49.472Z,1007.75
2019-06-07T02:45:49.435Z,1007.78
2019-06-07T02:46:50.134Z,1007.79
2019-06-07T02:47:49.426Z,1007.76
2019-06-07T02:48:49.405Z,1007.74
2019-06-07T02:49:49.394Z,1007.74
2019-06-07T02:50:49.380Z,1007.75
2019-06-07T02:51:49.399Z,1007.72
2019-06-07T02:52:49.355Z,1007.69
2019-06-07T02:53:49.342Z,1007.67
2019-06-07T02:54:49.332Z,1007.68
2019-06-07T02:56:34.276Z,1007.64
2019-06-07T02:56:58.116Z,1007.63
2019-06-07T02:57:50.302Z,1007.63
2019-06-07T02:58:49.296Z,1007.61
2019-06-07T03:00:06.827Z,1007.63
2019-06-07T03:01:09.015Z,1007.60
2019-06-07T03:01:50.264Z,1007.57
2019-06-07T03:02:49.272Z,1007.57
2019-06-07T03:03:49.302Z,1007.57
2019-06-07T03:04:49.219Z,1007.56
2019-06-07T03:05:49.212Z,1007.57
2019-06-07T03:06:49.227Z,1007.55
2019-06-07T03:07:49.185Z,1007.57
2019-06-07T03:08:49.179Z,1007.59
2019-06-07T03:09:49.227Z,1007.55
2019-06-07T03:10:49.161Z,1007.55
2019-06-07T03:11:49.144Z,1007.50
2019-06-07T03:12:49.159Z,1007.50
2019-06-07T03:13:49.119Z,1007.54
2019-06-07T03:14:49.114Z,1007.52
2019-06-07T03:15:50.362Z,1007.51
2019-06-07T03:16:49.084Z,1007.52
2019-06-07T03:17:49.104Z,1007.48
2019-06-07T03:18:49.062Z,1007.44
2019-06-07T03:19:49.050Z,1007.47
2019-06-07T03:21:04.621Z,1007.45
2019-06-07T03:21:50.025Z,1007.44
2019-06-07T03:22:49.051Z,1007.41
2019-06-07T03:23:49.005Z,1007.42
2019-06-07T03:24:49.001Z,1007.45
2019-06-07T03:25:48.981Z,1007.45
2019-06-07T03:27:50.693Z,1007.45
2019-06-07T03:28:48.952Z,1007.49
2019-06-07T03:29:48.937Z,1007.51
2019-06-07T03:31:01.513Z,1007.52
2019-06-07T03:31:49.914Z,1007.55
2019-06-07T03:32:48.968Z,1007.49
2019-06-07T03:33:48.895Z,1007.55
2019-06-07T03:34:48.880Z,1007.50
2019-06-07T03:35:48.871Z,1007.53
2019-06-07T03:36:48.857Z,1007.47
2019-06-07T03:37:48.881Z,1007.47
2019-06-07T03:38:48.843Z,1007.46
2019-06-07T03:39:48.825Z,1007.42
2019-06-07T03:40:48.812Z,1007.45
2019-06-07T03:42:05.254Z,1007.41
2019-06-07T03:42:49.820Z,1007.45
2019-06-07T03:43:48.777Z,1007.41
2019-06-07T03:44:48.813Z,1007.43
2019-06-07T03:45:48.755Z,1007.45
2019-06-07T03:46:48.757Z,1007.46
2019-06-07T03:47:48.764Z,1007.44
2019-06-07T03:48:48.735Z,1007.44
2019-06-07T03:49:48.710Z,1007.47
2019-06-07T03:51:03.903Z,1007.47
2019-06-07T03:51:49.686Z,1007.47
2019-06-07T03:52:48.707Z,1007.45
2019-06-07T03:53:48.667Z,1007.46
2019-06-07T03:54:48.659Z,1007.43
2019-06-07T03:55:48.643Z,1007.45
2019-06-07T03:56:48.630Z,1007.37
2019-06-07T03:58:30.241Z,1007.38
2019-06-07T03:58:50.573Z,1007.34
2019-06-07T03:59:48.597Z,1007.36
2019-06-07T04:00:48.588Z,1007.34
2019-06-07T04:01:48.574Z,1007.37
2019-06-07T04:02:48.602Z,1007.35
2019-06-07T04:03:51.695Z,1007.36
2019-06-07T04:04:48.541Z,1007.30
2019-06-07T04:05:48.730Z,1007.29
2019-06-07T04:06:48.556Z,1007.30
2019-06-07T04:07:48.656Z,1007.34
2019-06-07T04:08:48.531Z,1007.36
2019-06-07T04:09:48.492Z,1007.34
2019-06-07T04:10:59.804Z,1007.37
2019-06-07T04:11:49.460Z,1007.37
2019-06-07T04:12:48.455Z,1007.38
2019-06-07T04:13:48.470Z,1007.35
2019-06-07T04:14:48.428Z,1007.35
2019-06-07T04:15:48.567Z,1007.37
2019-06-07T04:16:48.406Z,1007.34
2019-06-07T04:18:01.355Z,1007.31
2019-06-07T04:18:49.413Z,1007.28
2019-06-07T04:19:48.401Z,1007.23
2019-06-07T04:20:48.359Z,1007.24
2019-06-07T04:21:48.402Z,1007.25
2019-06-07T04:22:48.340Z,1007.24
2019-06-07T04:23:48.359Z,1007.19
2019-06-07T04:24:48.360Z,1007.12
2019-06-07T04:25:48.304Z,1007.11
2019-06-07T04:26:48.292Z,1007.09
2019-06-07T04:27:48.283Z,1007.07
2019-06-07T04:29:31.668Z,1007.09
2019-06-07T04:30:06.497Z,1007.03
2019-06-07T04:30:49.245Z,1007.02
2019-06-07T04:31:48.237Z,1006.97
2019-06-07T04:32:48.225Z,1006.94
2019-06-07T04:33:48.248Z,1006.91
2019-06-07T04:34:48.309Z,1006.81
2019-06-07T04:35:48.191Z,1006.82
2019-06-07T04:36:58.607Z,1006.81
2019-06-07T04:37:49.169Z,1006.82
2019-06-07T04:38:48.188Z,1006.81
2019-06-07T04:39:48.222Z,1006.79
2019-06-07T04:40:48.134Z,1006.77
2019-06-07T04:41:48.122Z,1006.78
2019-06-07T04:42:48.113Z,1006.75
2019-06-07T04:43:48.128Z,1006.73
2019-06-07T04:44:48.299Z,1006.73
2019-06-07T04:45:51.114Z,1006.72
2019-06-07T04:46:48.067Z,1006.68
2019-06-07T04:47:48.054Z,1006.66
2019-06-07T04:48:48.078Z,1006.60
2019-06-07T04:49:48.032Z,1006.59
2019-06-07T04:50:48.019Z,1006.63
2019-06-07T04:51:48.009Z,1006.62
2019-06-07T04:52:48.000Z,1006.66
2019-06-07T04:53:48.017Z,1006.63
2019-06-07T04:54:47.976Z,1006.63
2019-06-07T04:55:47.963Z,1006.65
2019-06-07T04:56:47.953Z,1006.60
2019-06-07T04:57:47.941Z,1006.61
2019-06-07T04:58:47.932Z,1006.65
2019-06-07T05:00:12.145Z,1006.65
2019-06-07T05:00:55.633Z,1006.67
2019-06-07T05:01:48.895Z,1006.62
2019-06-07T05:02:47.884Z,1006.60
2019-06-07T05:03:47.877Z,1006.57
2019-06-07T05:04:47.988Z,1006.56
2019-06-07T05:05:47.850Z,1006.53
2019-06-07T05:06:47.846Z,1006.58
2019-06-07T05:07:47.828Z,1006.54
2019-06-07T05:08:47.815Z,1006.58
2019-06-07T05:09:47.836Z,1006.61
2019-06-07T05:10:47.794Z,1006.59
2019-06-07T05:11:47.786Z,1006.61
2019-06-07T05:12:47.770Z,1006.54
2019-06-07T05:13:47.760Z,1006.59
2019-06-07T05:14:47.780Z,1006.52
2019-06-07T05:15:47.737Z,1006.54
2019-06-07T05:16:47.726Z,1006.56
2019-06-07T05:17:47.713Z,1006.57
2019-06-07T05:18:47.702Z,1006.55
2019-06-07T05:19:47.725Z,1006.55
2019-06-07T05:20:47.681Z,1006.52
2019-06-07T05:22:02.637Z,1006.48
2019-06-07T05:22:48.655Z,1006.47
2019-06-07T05:24:09.784Z,1006.47
2019-06-07T05:24:48.665Z,1006.45
2019-06-07T05:25:47.623Z,1006.45
2019-06-07T05:26:47.612Z,1006.42
2019-06-07T05:27:47.601Z,1006.38
2019-06-07T05:28:47.591Z,1006.33
2019-06-07T05:30:09.004Z,1006.36
2019-06-07T05:31:03.675Z,1006.36
2019-06-07T05:31:48.555Z,1006.37
2019-06-07T05:32:47.546Z,1006.40
2019-06-07T05:33:47.535Z,1006.38
2019-06-07T05:34:47.691Z,1006.36
2019-06-07T05:35:47.540Z,1006.36
2019-06-07T05:37:08.461Z,1006.33
2019-06-07T05:37:48.503Z,1006.29
2019-06-07T05:38:47.475Z,1006.30
2019-06-07T05:39:47.518Z,1006.32
2019-06-07T05:40:49.146Z,1006.31
2019-06-07T05:41:47.458Z,1006.39
2019-06-07T05:42:47.433Z,1006.38
2019-06-07T05:44:01.889Z,1006.32
2019-06-07T05:44:48.422Z,1006.38
2019-06-07T05:45:47.429Z,1006.37
2019-06-07T05:46:47.701Z,1006.38
2019-06-07T05:47:50.925Z,1006.38
2019-06-07T05:48:48.230Z,1006.41
2019-06-07T05:49:47.554Z,1006.41
2019-06-07T05:50:55.989Z,1006.38
2019-06-07T05:51:48.358Z,1006.35
2019-06-07T05:52:47.743Z,1006.36
2019-06-07T05:53:50.413Z,1006.32
2019-06-07T05:54:47.296Z,1006.27
2019-06-07T05:55:54.449Z,1006.25
2019-06-07T05:56:50.957Z,1006.26
2019-06-07T05:57:51.065Z,1006.27
2019-06-07T05:58:47.248Z,1006.26
2019-06-07T05:59:47.803Z,1006.24
2019-06-07T06:00:47.849Z,1006.22
2019-06-07T06:01:58.946Z,1006.16
2019-06-07T06:03:04.315Z,1006.21
2019-06-07T06:03:48.581Z,1006.09
2019-06-07T06:04:49.204Z,1006.08
2019-06-07T06:05:54.441Z,1006.05
2019-06-07T06:06:48.188Z,1006.01
2019-06-07T06:07:50.522Z,1005.96
2019-06-07T06:08:47.953Z,1005.95
2019-06-07T06:09:47.664Z,1005.97
2019-06-07T06:10:49.054Z,1005.98
2019-06-07T06:11:59.556Z,1005.97
2019-06-07T06:12:51.807Z,1005.91
2019-06-07T06:14:05.962Z,1005.89
2019-06-07T06:14:48.067Z,1005.92
2019-06-07T06:16:00.854Z,1005.87
2019-06-07T06:16:50.004Z,1005.87
2019-06-07T06:17:50.023Z,1005.86
2019-06-07T06:18:49.191Z,1005.90
2019-06-07T06:19:50.353Z,1005.82
2019-06-07T06:21:12.655Z,1005.81
2019-06-07T06:21:48.727Z,1005.78
2019-06-07T06:22:48.676Z,1005.81
2019-06-07T06:23:50.740Z,1005.81
2019-06-07T06:25:24.529Z,1005.79
2019-06-07T06:25:55.830Z,1005.80
2019-06-07T06:26:52.267Z,1005.76
2019-06-07T06:28:11.570Z,1005.74
2019-06-07T06:28:49.645Z,1005.77
2019-06-07T06:29:50.097Z,1005.73
2019-06-07T06:30:47.955Z,1005.75
2019-06-07T06:32:35.508Z,1005.72
2019-06-07T06:32:54.967Z,1005.67
2019-06-07T06:33:49.896Z,1005.66
2019-06-07T06:34:49.432Z,1005.64
2019-06-07T06:35:49.343Z,1005.61
2019-06-07T06:36:50.095Z,1005.65
2019-06-07T06:37:52.595Z,1005.61
2019-06-07T06:38:49.751Z,1005.62
2019-06-07T06:39:49.977Z,1005.59
2019-06-07T06:40:49.721Z,1005.59
2019-06-07T06:41:58.485Z,1005.55
2019-06-07T06:42:49.049Z,1005.57
2019-06-07T06:43:50.339Z,1005.59
2019-06-07T06:44:53.671Z,1005.52
2019-06-07T06:45:50.500Z,1005.51
2019-06-07T06:46:55.789Z,1005.51
2019-06-07T06:47:50.474Z,1005.44
2019-06-07T06:48:53.790Z,1005.40
2019-06-07T06:49:49.987Z,1005.41
2019-06-07T06:50:52.232Z,1005.40
2019-06-07T06:51:51.354Z,1005.49
2019-06-07T06:52:53.467Z,1005.46
2019-06-07T06:53:49.871Z,1005.43
2019-06-07T06:54:55.377Z,1005.41
2019-06-07T06:55:49.330Z,1005.40
2019-06-07T06:56:47.566Z,1005.40
2019-06-07T06:57:48.376Z,1005.42
2019-06-07T06:59:32.531Z,1005.44
2019-06-07T06:59:50.459Z,1005.44
2019-06-07T07:00:58.914Z,1005.41
2019-06-07T07:01:50.386Z,1005.41
2019-06-07T07:03:39.326Z,1005.40
2019-06-07T07:04:09.089Z,1005.44
2019-06-07T07:04:48.689Z,1005.44
2019-06-07T07:05:50.042Z,1005.44
2019-06-07T07:06:48.034Z,1005.42
2019-06-07T07:07:50.005Z,1005.43
2019-06-07T07:08:48.259Z,1005.40
2019-06-07T07:09:50.983Z,1005.37
2019-06-07T07:10:51.055Z,1005.41
2019-06-07T07:12:06.335Z,1005.41
2019-06-07T07:12:47.851Z,1005.34
2019-06-07T07:13:49.945Z,1005.27
2019-06-07T07:14:49.736Z,1005.26
2019-06-07T07:15:48.138Z,1005.20
2019-06-07T07:16:50.081Z,1005.24
2019-06-07T07:17:58.898Z,1005.23
2019-06-07T07:18:51.120Z,1005.17
2019-06-07T07:19:49.879Z,1005.13
2019-06-07T07:20:48.235Z,1005.21
2019-06-07T07:21:50.635Z,1005.19
2019-06-07T07:22:48.598Z,1005.21
2019-06-07T07:24:12.371Z,1005.19
2019-06-07T07:24:49.752Z,1005.16
2019-06-07T07:25:52.829Z,1005.14
2019-06-07T07:26:50.065Z,1005.18
2019-06-07T07:27:47.261Z,1005.11
2019-06-07T07:28:50.840Z,1005.16
2019-06-07T07:29:52.563Z,1005.10
2019-06-07T07:30:47.527Z,1005.06
2019-06-07T07:31:50.284Z,1005.06
2019-06-07T07:32:48.962Z,1005.08
2019-06-07T07:34:50.080Z,1005.07
2019-06-07T07:36:10.993Z,1005.06
2019-06-07T07:36:48.284Z,1005.08
2019-06-07T07:37:48.924Z,1005.07
2019-06-07T07:38:51.819Z,1005.04
2019-06-07T07:39:50.163Z,1005.00
2019-06-07T07:41:02.306Z,1005.03
2019-06-07T07:42:10.587Z,1004.98
2019-06-07T07:42:49.618Z,1005.01
2019-06-07T07:43:54.469Z,1004.93
2019-06-07T07:44:49.066Z,1004.95
2019-06-07T07:45:50.495Z,1004.98
2019-06-07T07:46:49.162Z,1004.91
2019-06-07T07:48:07.074Z,1004.93
2019-06-07T07:48:48.547Z,1004.98
2019-06-07T07:49:48.460Z,1004.82
2019-06-07T07:50:49.775Z,1004.88
2019-06-07T07:51:48.896Z,1004.77
2019-06-07T07:52:49.097Z,1004.78
2019-06-07T07:53:54.616Z,1004.77
2019-06-07T07:54:49.165Z,1004.72
2019-06-07T07:55:50.468Z,1004.74
2019-06-07T07:56:47.510Z,1004.70
2019-06-07T07:57:48.317Z,1004.68
2019-06-07T07:58:50.011Z,1004.68
2019-06-07T08:00:04.482Z,1004.62
2019-06-07T08:00:54.900Z,1004.59
2019-06-07T08:01:48.586Z,1004.66
2019-06-07T08:02:48.797Z,1004.60
2019-06-07T08:03:46.014Z,1004.53
2019-06-07T08:05:16.632Z,1004.61
2019-06-07T08:05:47.608Z,1004.45
2019-06-07T08:06:46.650Z,1004.51
2019-06-07T08:07:49.922Z,1004.51
2019-06-07T08:08:46.808Z,1004.47
2019-06-07T08:09:47.418Z,1004.46
2019-06-07T08:10:48.020Z,1004.52
2019-06-07T08:11:47.745Z,1004.45
2019-06-07T08:13:08.827Z,1004.42
2019-06-07T08:13:48.009Z,1004.42
2019-06-07T08:14:47.674Z,1004.46
2019-06-07T08:15:48.302Z,1004.49
2019-06-07T08:16:47.011Z,1004.53
2019-06-07T08:17:47.250Z,1004.56
2019-06-07T08:18:45.697Z,1004.55
2019-06-07T08:19:47.614Z,1004.57
2019-06-07T08:21:05.012Z,1004.46
2019-06-07T08:21:47.891Z,1004.52
2019-06-07T08:22:45.619Z,1004.50
2019-06-07T08:23:47.548Z,1004.45
2019-06-07T08:24:50.021Z,1004.41
2019-06-07T08:25:46.763Z,1004.37
2019-06-07T08:27:09.422Z,1004.34
2019-06-07T08:27:47.030Z,1004.33
2019-06-07T08:28:45.552Z,1004.30
2019-06-07T08:30:00.927Z,1004.34
2019-06-07T08:30:50.615Z,1004.36
2019-06-07T08:31:48.161Z,1004.33
2019-06-07T08:32:45.505Z,1004.38
2019-06-07T08:33:45.497Z,1004.35
2019-06-07T08:34:45.517Z,1004.28
2019-06-07T08:36:46.458Z,1004.23
2019-06-07T08:38:48.341Z,1004.22
2019-06-07T08:39:46.473Z,1004.23
2019-06-07T08:40:45.466Z,1004.16
2019-06-07T08:41:59.354Z,1004.18
2019-06-07T08:43:04.552Z,1004.14
2019-06-07T08:43:46.380Z,1004.14
2019-06-07T08:44:45.405Z,1004.11
2019-06-07T08:45:45.364Z,1004.10
2019-06-07T08:46:45.350Z,1004.09
2019-06-07T08:47:45.336Z,1004.01
2019-06-07T08:48:45.324Z,1003.99
2019-06-07T08:49:45.824Z,1003.98
2019-06-07T08:50:45.303Z,1004.01
2019-06-07T08:51:45.293Z,1003.99
2019-06-07T08:52:45.280Z,1003.96
2019-06-07T08:54:02.936Z,1003.93
2019-06-07T08:54:46.286Z,1003.95
2019-06-07T08:55:45.247Z,1003.89
2019-06-07T08:56:45.239Z,1003.80
2019-06-07T08:57:45.255Z,1003.83
2019-06-07T08:58:45.226Z,1003.78
2019-06-07T08:59:45.250Z,1003.81
2019-06-07T09:00:47.449Z,1003.76
2019-06-07T09:01:45.181Z,1003.72
2019-06-07T09:02:45.166Z,1003.70
2019-06-07T09:03:45.156Z,1003.69
2019-06-07T09:04:45.159Z,1003.76
2019-06-07T09:05:45.163Z,1003.62
2019-06-07T09:07:46.114Z,1003.72
2019-06-07T09:08:45.104Z,1003.66
2019-06-07T09:09:45.125Z,1003.68
2019-06-07T09:10:45.076Z,1003.57
2019-06-07T09:11:45.064Z,1003.50
2019-06-07T09:12:45.062Z,1003.53
2019-06-07T09:13:45.043Z,1003.46
2019-06-07T09:14:59.882Z,1003.48
2019-06-07T09:15:46.051Z,1003.43
2019-06-07T09:16:45.015Z,1003.41
2019-06-07T09:18:30.102Z,1003.37
2019-06-07T09:18:45.984Z,1003.27
2019-06-07T09:19:44.978Z,1003.30
2019-06-07T09:20:44.996Z,1003.20
2019-06-07T09:21:44.951Z,1003.16
2019-06-07T09:22:44.940Z,1003.10
2019-06-07T09:23:44.929Z,1003.12
2019-06-07T09:24:44.932Z,1003.10
2019-06-07T09:25:57.234Z,1003.11
2019-06-07T09:26:45.894Z,1003.12
2019-06-07T09:27:44.887Z,1003.14
2019-06-07T09:28:44.873Z,1003.19
2019-06-07T09:29:44.862Z,1003.24
2019-06-07T09:30:44.895Z,1003.14
2019-06-07T09:31:53.764Z,1003.10
2019-06-07T09:32:45.825Z,1003.20
2019-06-07T09:33:44.815Z,1003.15
2019-06-07T09:34:44.805Z,1003.10
2019-06-07T09:35:44.826Z,1003.08
2019-06-07T09:36:44.784Z,1003.03
2019-06-07T09:38:45.759Z,1003.00
2019-06-07T09:39:44.754Z,1002.96
2019-06-07T09:40:44.769Z,1002.89
2019-06-07T09:41:50.309Z,1002.93
2019-06-07T09:42:45.712Z,1002.89
2019-06-07T09:44:01.575Z,1002.88
2019-06-07T09:44:45.690Z,1002.86
2019-06-07T09:45:44.711Z,1002.85
2019-06-07T09:46:44.669Z,1002.82
2019-06-07T09:47:44.666Z,1002.82
2019-06-07T09:49:10.659Z,1002.82
2019-06-07T09:49:45.635Z,1002.80
2019-06-07T09:50:44.626Z,1002.82
2019-06-07T09:51:44.642Z,1002.76
2019-06-07T09:52:57.932Z,1002.81
2019-06-07T09:53:45.590Z,1002.83
2019-06-07T09:55:45.596Z,1002.79
2019-06-07T09:56:46.269Z,1002.79
2019-06-07T09:57:44.545Z,1002.78
2019-06-07T09:58:51.920Z,1002.75
2019-06-07T09:59:46.876Z,1002.71
2019-06-07T10:00:44.511Z,1002.71
2019-06-07T10:01:44.530Z,1002.69
2019-06-07T10:02:44.491Z,1002.72
2019-06-07T10:03:44.495Z,1002.68
2019-06-07T10:04:44.468Z,1002.68
2019-06-07T10:05:44.457Z,1002.64
2019-06-07T10:06:44.485Z,1002.62
2019-06-07T10:07:59.615Z,1002.62
2019-06-07T10:10:45.398Z,1002.56
2019-06-07T10:11:44.420Z,1002.53
2019-06-07T10:12:44.376Z,1002.53
2019-06-07T10:13:44.367Z,1002.46
2019-06-07T10:14:45.279Z,1002.45
2019-06-07T10:15:44.344Z,1002.45
2019-06-07T10:16:46.537Z,1002.52
2019-06-07T10:17:44.326Z,1002.46
2019-06-07T10:18:44.312Z,1002.48
2019-06-07T10:19:44.300Z,1002.48
2019-06-07T10:20:44.287Z,1002.50
2019-06-07T10:21:44.310Z,1002.49
2019-06-07T10:22:44.272Z,1002.51
2019-06-07T10:23:44.274Z,1002.42
2019-06-07T10:24:44.265Z,1002.49
2019-06-07T10:25:44.251Z,1002.40
2019-06-07T10:26:44.381Z,1002.40
2019-06-07T10:27:44.250Z,1002.44
2019-06-07T10:28:44.202Z,1002.46
2019-06-07T10:29:44.195Z,1002.45
2019-06-07T10:30:44.182Z,1002.48
2019-06-07T10:31:44.196Z,1002.38
2019-06-07T10:32:44.158Z,1002.37
2019-06-07T10:33:44.170Z,1002.36
2019-06-07T10:34:44.129Z,1002.38
2019-06-07T10:35:44.120Z,1002.35
2019-06-07T10:36:44.162Z,1002.39
2019-06-07T10:37:44.103Z,1002.37
2019-06-07T10:38:44.085Z,1002.38
2019-06-07T10:39:48.757Z,1002.42
2019-06-07T10:40:45.061Z,1002.38
2019-06-07T10:41:44.085Z,1002.40
2019-06-07T10:42:44.041Z,1002.36
2019-06-07T10:43:44.028Z,1002.43
2019-06-07T10:44:44.035Z,1002.38
2019-06-07T10:45:44.009Z,1002.36
2019-06-07T10:46:44.004Z,1002.33
2019-06-07T10:47:44.025Z,1002.35
2019-06-07T10:48:43.976Z,1002.36
2019-06-07T10:49:43.961Z,1002.34
2019-06-07T10:50:43.982Z,1002.33
2019-06-07T10:51:43.945Z,1002.34
2019-06-07T10:52:43.964Z,1002.31
2019-06-07T10:53:43.915Z,1002.24
2019-06-07T10:54:43.911Z,1002.22
2019-06-07T10:55:43.894Z,1002.26
2019-06-07T10:56:43.884Z,1002.25
2019-06-07T10:57:43.909Z,1002.19
2019-06-07T10:58:43.863Z,1002.27
2019-06-07T10:59:43.850Z,1002.25
2019-06-07T11:00:43.853Z,1002.24
2019-06-07T11:01:43.836Z,1002.23
2019-06-07T11:02:43.904Z,1002.15
2019-06-07T11:03:43.807Z,1002.24
2019-06-07T11:04:43.830Z,1002.13
2019-06-07T11:05:43.788Z,1002.13
2019-06-07T11:06:43.772Z,1002.13
2019-06-07T11:07:43.793Z,1002.09
2019-06-07T11:08:43.754Z,1002.23
2019-06-07T11:09:43.745Z,1002.19
2019-06-07T11:10:43.737Z,1002.16
2019-06-07T11:11:43.724Z,1002.17
2019-06-07T11:12:43.739Z,1002.12
2019-06-07T11:13:43.702Z,1002.13
2019-06-07T11:14:43.684Z,1002.06
2019-06-07T11:15:43.673Z,1002.12
2019-06-07T11:16:43.672Z,1002.07
2019-06-07T11:17:43.687Z,1002.01
2019-06-07T11:18:43.638Z,1001.91
2019-06-07T11:19:43.632Z,1001.85
2019-06-07T11:20:43.629Z,1001.85
2019-06-07T11:21:43.612Z,1001.77
2019-06-07T11:22:43.625Z,1001.68
2019-06-07T11:23:43.598Z,1001.66
2019-06-07T11:24:43.625Z,1001.62
2019-06-07T11:25:43.565Z,1001.45
2019-06-07T11:26:43.551Z,1001.40
2019-06-07T11:27:43.573Z,1001.31
2019-06-07T11:28:43.531Z,1001.24
2019-06-07T11:29:43.518Z,1001.26
2019-06-07T11:30:43.512Z,1001.30
2019-06-07T11:31:47.113Z,1001.36
2019-06-07T11:32:43.515Z,1001.36
2019-06-07T11:33:43.476Z,1001.39
2019-06-07T11:34:43.462Z,1001.30
2019-06-07T11:35:43.453Z,1001.27
2019-06-07T11:36:43.441Z,1001.35
2019-06-07T11:37:43.432Z,1001.37
2019-06-07T11:38:43.448Z,1001.37
2019-06-07T11:39:43.404Z,1001.40
2019-06-07T11:40:43.395Z,1001.28
2019-06-07T11:41:43.395Z,1001.42
2019-06-07T11:42:43.415Z,1001.46
2019-06-07T11:43:43.362Z,1001.45
2019-06-07T11:44:56.169Z,1001.44
2019-06-07T11:45:44.338Z,1001.53
2019-06-07T11:46:43.329Z,1001.43
2019-06-07T11:47:43.348Z,1001.48
2019-06-07T11:48:43.335Z,1001.46
2019-06-07T11:49:43.293Z,1001.46
2019-06-07T11:50:43.343Z,1001.48
2019-06-07T11:51:43.297Z,1001.43
2019-06-07T11:52:46.262Z,1001.48
2019-06-07T11:53:43.281Z,1001.39
2019-06-07T11:54:43.240Z,1001.38
2019-06-07T11:55:43.228Z,1001.48
2019-06-07T11:56:43.217Z,1001.41
2019-06-07T11:57:43.210Z,1001.36
2019-06-07T11:58:43.226Z,1001.31
2019-06-07T11:59:43.183Z,1001.37
2019-06-07T12:00:43.175Z,1001.33
2019-06-07T12:01:43.161Z,1001.29
2019-06-07T12:02:43.152Z,1001.18
2019-06-07T12:03:43.171Z,1001.20
2019-06-07T12:04:43.130Z,1001.15
2019-06-07T12:05:43.118Z,1001.24
2019-06-07T12:06:43.120Z,1001.37
2019-06-07T12:07:43.095Z,1001.39
2019-06-07T12:08:43.140Z,1001.40
2019-06-07T12:09:55.807Z,1001.25
2019-06-07T12:10:44.065Z,1001.21
2019-06-07T12:11:43.052Z,1001.28
2019-06-07T12:12:43.041Z,1001.15
2019-06-07T12:13:43.063Z,1001.11
2019-06-07T12:14:43.022Z,1001.19
2019-06-07T12:15:43.018Z,1001.08